sensor_id;sensor_type;location;lat;lon;timestamp;pressure;altitude;pressure_sealevel;temperature;humidity
76321;BME280;65132;52.088;5.402;2023-11-21T00:00:30;78160.38;;;-140.59;100.00
76321;BME280;65132;52.088;5.402;2023-11-21T00:02:56;78166.63;;;-140.59;100.00
76321;BME280;65132;52.088;5.402;2023-11-21T00:05:37;78170.78;;;-140.59;100.00
76321;BME280;65132;52.088;5.402;2023-11-21T00:08:06;78168.69;;;-140.59;100.00
76321;BME280;65132;52.088;5.402;2023-11-21T00:10:37;78174.94;;;-140.59;100.00
76321;BME280;65132;52.088;5.402;2023-11-21T00:13:08;78177.00;;;-140.59;100.00
76321;BME280;65132;52.088;5.402;2023-11-21T00:15:35;78183.25;;;-140.59;100.00
76321;BME280;65132;52.088;5.402;2023-11-21T00:18:01;78181.16;;;-140.59;100.00
76321;BME280;65132;52.088;5.402;2023-11-21T00:20:29;78187.41;;;-140.59;100.00
76321;BME280;65132;52.088;5.402;2023-11-21T00:22:56;78187.41;;;-140.59;100.00
76321;BME280;65132;52.088;5.402;2023-11-21T00:25:25;78193.63;;;-140.59;100.00
76321;BME280;65132;52.088;5.402;2023-11-21T00:27:51;78199.88;;;-140.59;100.00
76321;BME280;65132;52.088;5.402;2023-11-21T00:30:18;78201.94;;;-140.59;100.00
76321;BME280;65132;52.088;5.402;2023-11-21T00:32:44;78195.72;;;-140.59;100.00
76321;BME280;65132;52.088;5.402;2023-11-21T00:35:11;78201.94;;;-140.59;100.00
76321;BME280;65132;52.088;5.402;2023-11-21T00:37:47;78191.56;;;-140.59;100.00
76321;BME280;65132;52.088;5.402;2023-11-21T00:40:14;78191.56;;;-140.59;100.00
76321;BME280;65132;52.088;5.402;2023-11-21T00:42:43;78195.72;;;-140.59;100.00
76321;BME280;65132;52.088;5.402;2023-11-21T00:45:12;78187.41;;;-140.59;100.00
76321;BME280;65132;52.088;5.402;2023-11-21T00:47:41;78195.72;;;-140.59;100.00
76321;BME280;65132;52.088;5.402;2023-11-21T00:50:08;78193.63;;;-140.59;100.00
76321;BME280;65132;52.088;5.402;2023-11-21T00:52:37;78199.88;;;-140.59;100.00
76321;BME280;65132;52.088;5.402;2023-11-21T00:55:04;78197.78;;;-140.59;100.00
76321;BME280;65132;52.088;5.402;2023-11-21T00:57:31;78208.19;;;-140.59;100.00
76321;BME280;65132;52.088;5.402;2023-11-21T00:59:58;78210.25;;;-140.59;100.00
76321;BME280;65132;52.088;5.402;2023-11-21T01:02:31;78210.25;;;-140.59;100.00
76321;BME280;65132;52.088;5.402;2023-11-21T01:05:05;78206.09;;;-140.59;100.00
76321;BME280;65132;52.088;5.402;2023-11-21T01:07:32;78195.72;;;-140.59;100.00
76321;BME280;65132;52.088;5.402;2023-11-21T01:09:59;78191.56;;;-140.59;100.00
76321;BME280;65132;52.088;5.402;2023-11-21T01:12:25;78191.56;;;-140.59;100.00
76321;BME280;65132;52.088;5.402;2023-11-21T01:14:52;78195.72;;;-140.59;100.00
76321;BME280;65132;52.088;5.402;2023-11-21T01:17:23;78193.63;;;-140.59;100.00
76321;BME280;65132;52.088;5.402;2023-11-21T01:19:50;78199.88;;;-140.59;100.00
76321;BME280;65132;52.088;5.402;2023-11-21T01:22:18;78199.88;;;-140.59;100.00
76321;BME280;65132;52.088;5.402;2023-11-21T01:24:51;78204.03;;;-140.59;100.00
76321;BME280;65132;52.088;5.402;2023-11-21T01:27:20;78204.03;;;-140.59;100.00
76321;BME280;65132;52.088;5.402;2023-11-21T01:29:50;78204.03;;;-140.59;100.00
76321;BME280;65132;52.088;5.402;2023-11-21T01:32:17;78206.09;;;-140.59;100.00
76321;BME280;65132;52.088;5.402;2023-11-21T01:34:43;78212.34;;;-140.59;100.00
76321;BME280;65132;52.088;5.402;2023-11-21T01:37:10;78208.19;;;-140.59;100.00
76321;BME280;65132;52.088;5.402;2023-11-21T01:39:39;78212.34;;;-140.59;100.00
76321;BME280;65132;52.088;5.402;2023-11-21T01:42:10;78210.25;;;-140.59;100.00
76321;BME280;65132;52.088;5.402;2023-11-21T01:44:37;78210.25;;;-140.59;100.00
76321;BME280;65132;52.088;5.402;2023-11-21T01:47:10;78208.19;;;-140.59;100.00
76321;BME280;65132;52.088;5.402;2023-11-21T01:49:37;78212.34;;;-140.59;100.00
76321;BME280;65132;52.088;5.402;2023-11-21T01:52:04;78210.25;;;-140.59;100.00
76321;BME280;65132;52.088;5.402;2023-11-21T01:54:44;78208.19;;;-140.59;100.00
76321;BME280;65132;52.088;5.402;2023-11-21T01:57:11;78201.94;;;-140.59;100.00
76321;BME280;65132;52.088;5.402;2023-11-21T01:59:40;78197.78;;;-140.59;100.00
76321;BME280;65132;52.088;5.402;2023-11-21T02:02:07;78193.63;;;-140.59;100.00
76321;BME280;65132;52.088;5.402;2023-11-21T02:04:38;78189.47;;;-140.59;100.00
76321;BME280;65132;52.088;5.402;2023-11-21T02:07:12;78181.16;;;-140.59;100.00
76321;BME280;65132;52.088;5.402;2023-11-21T02:09:38;78181.16;;;-140.59;100.00
76321;BME280;65132;52.088;5.402;2023-11-21T02:12:05;78185.31;;;-140.59;100.00
76321;BME280;65132;52.088;5.402;2023-11-21T02:14:35;78191.56;;;-140.59;100.00
76321;BME280;65132;52.088;5.402;2023-11-21T02:17:01;78191.56;;;-140.59;100.00
76321;BME280;65132;52.088;5.402;2023-11-21T02:19:32;78189.47;;;-140.59;100.00
76321;BME280;65132;52.088;5.402;2023-11-21T02:21:59;78193.63;;;-140.59;100.00
76321;BME280;65132;52.088;5.402;2023-11-21T02:24:29;78185.31;;;-140.59;100.00
76321;BME280;65132;52.088;5.402;2023-11-21T02:26:55;78181.16;;;-140.59;100.00
76321;BME280;65132;52.088;5.402;2023-11-21T02:29:22;78177.00;;;-140.59;100.00
76321;BME280;65132;52.088;5.402;2023-11-21T02:31:54;78179.09;;;-140.59;100.00
76321;BME280;65132;52.088;5.402;2023-11-21T02:34:22;78168.69;;;-140.59;100.00
76321;BME280;65132;52.088;5.402;2023-11-21T02:36:52;78166.63;;;-140.59;100.00
76321;BME280;65132;52.088;5.402;2023-11-21T02:39:30;78164.53;;;-140.59;100.00
76321;BME280;65132;52.088;5.402;2023-11-21T02:42:00;78152.06;;;-140.59;100.00
76321;BME280;65132;52.088;5.402;2023-11-21T02:44:27;78150.00;;;-140.59;100.00
76321;BME280;65132;52.088;5.402;2023-11-21T02:46:53;78145.84;;;-140.59;100.00
76321;BME280;65132;52.088;5.402;2023-11-21T02:49:22;78139.59;;;-140.59;100.00
76321;BME280;65132;52.088;5.402;2023-11-21T02:51:48;78133.38;;;-140.59;100.00
76321;BME280;65132;52.088;5.402;2023-11-21T02:54:15;78129.22;;;-140.59;100.00
76321;BME280;65132;52.088;5.402;2023-11-21T02:56:42;78125.06;;;-140.59;100.00
76321;BME280;65132;52.088;5.402;2023-11-21T02:59:10;78125.06;;;-140.59;100.00
76321;BME280;65132;52.088;5.402;2023-11-21T03:01:45;78114.66;;;-140.59;100.00
76321;BME280;65132;52.088;5.402;2023-11-21T03:04:12;78102.19;;;-140.59;100.00
76321;BME280;65132;52.088;5.402;2023-11-21T03:06:39;78108.44;;;-140.59;100.00
76321;BME280;65132;52.088;5.402;2023-11-21T03:09:08;78106.34;;;-140.59;100.00
76321;BME280;65132;52.088;5.402;2023-11-21T03:11:34;78104.28;;;-140.59;100.00
76321;BME280;65132;52.088;5.402;2023-11-21T03:14:04;78089.72;;;-140.59;100.00
76321;BME280;65132;52.088;5.402;2023-11-21T03:16:34;78089.72;;;-140.59;100.00
76321;BME280;65132;52.088;5.402;2023-11-21T03:19:02;78093.88;;;-140.59;100.00
76321;BME280;65132;52.088;5.402;2023-11-21T03:21:31;78093.88;;;-140.59;100.00
76321;BME280;65132;52.088;5.402;2023-11-21T03:24:02;78091.81;;;-140.59;100.00
76321;BME280;65132;52.088;5.402;2023-11-21T03:26:29;78087.66;;;-140.59;100.00
76321;BME280;65132;52.088;5.402;2023-11-21T03:28:55;78091.81;;;-140.59;100.00
76321;BME280;65132;52.088;5.402;2023-11-21T03:31:22;78091.81;;;-140.59;100.00
76321;BME280;65132;52.088;5.402;2023-11-21T03:33:48;78091.81;;;-140.59;100.00
76321;BME280;65132;52.088;5.402;2023-11-21T03:36:15;78095.97;;;-140.59;100.00
76321;BME280;65132;52.088;5.402;2023-11-21T03:38:43;78100.13;;;-140.59;100.00
76321;BME280;65132;52.088;5.402;2023-11-21T03:41:10;78095.97;;;-140.59;100.00
76321;BME280;65132;52.088;5.402;2023-11-21T03:43:38;78100.13;;;-140.59;100.00
76321;BME280;65132;52.088;5.402;2023-11-21T03:46:04;78095.97;;;-140.59;100.00
76321;BME280;65132;52.088;5.402;2023-11-21T03:48:31;78100.13;;;-140.59;100.00
76321;BME280;65132;52.088;5.402;2023-11-21T03:50:57;78095.97;;;-140.59;100.00
76321;BME280;65132;52.088;5.402;2023-11-21T03:53:24;78104.28;;;-140.59;100.00
76321;BME280;65132;52.088;5.402;2023-11-21T03:55:50;78100.13;;;-140.59;100.00
76321;BME280;65132;52.088;5.402;2023-11-21T03:58:19;78095.97;;;-140.59;100.00
76321;BME280;65132;52.088;5.402;2023-11-21T04:00:46;78100.13;;;-140.59;100.00
76321;BME280;65132;52.088;5.402;2023-11-21T04:03:14;78095.97;;;-140.59;100.00
76321;BME280;65132;52.088;5.402;2023-11-21T04:05:41;78106.34;;;-140.59;100.00
76321;BME280;65132;52.088;5.402;2023-11-21T04:08:10;78104.28;;;-140.59;100.00
76321;BME280;65132;52.088;5.402;2023-11-21T04:10:36;78104.28;;;-140.59;100.00
76321;BME280;65132;52.088;5.402;2023-11-21T04:13:05;78108.44;;;-140.59;100.00
76321;BME280;65132;52.088;5.402;2023-11-21T04:15:32;78106.34;;;-140.59;100.00
76321;BME280;65132;52.088;5.402;2023-11-21T04:17:59;78116.75;;;-140.59;100.00
76321;BME280;65132;52.088;5.402;2023-11-21T04:20:25;78106.34;;;-140.59;100.00
76321;BME280;65132;52.088;5.402;2023-11-21T04:22:55;78108.44;;;-140.59;100.00
76321;BME280;65132;52.088;5.402;2023-11-21T04:25:24;78112.59;;;-140.59;100.00
76321;BME280;65132;52.088;5.402;2023-11-21T04:27:55;78114.66;;;-140.59;100.00
76321;BME280;65132;52.088;5.402;2023-11-21T04:30:24;78112.59;;;-140.59;100.00
76321;BME280;65132;52.088;5.402;2023-11-21T04:32:54;78114.66;;;-140.59;100.00
76321;BME280;65132;52.088;5.402;2023-11-21T04:35:20;78112.59;;;-140.59;100.00
76321;BME280;65132;52.088;5.402;2023-11-21T04:37:48;78112.59;;;-140.59;100.00
76321;BME280;65132;52.088;5.402;2023-11-21T04:40:15;78108.44;;;-140.59;100.00
76321;BME280;65132;52.088;5.402;2023-11-21T04:42:45;78108.44;;;-140.59;100.00
76321;BME280;65132;52.088;5.402;2023-11-21T04:45:11;78118.81;;;-140.59;100.00
76321;BME280;65132;52.088;5.402;2023-11-21T04:47:39;78118.81;;;-140.59;100.00
76321;BME280;65132;52.088;5.402;2023-11-21T04:50:13;78114.66;;;-140.59;100.00
76321;BME280;65132;52.088;5.402;2023-11-21T04:52:42;78116.75;;;-140.59;100.00
76321;BME280;65132;52.088;5.402;2023-11-21T04:55:09;78112.59;;;-140.59;100.00
76321;BME280;65132;52.088;5.402;2023-11-21T04:57:37;78108.44;;;-140.59;100.00
76321;BME280;65132;52.088;5.402;2023-11-21T05:00:09;78106.34;;;-140.59;100.00
76321;BME280;65132;52.088;5.402;2023-11-21T05:02:35;78106.34;;;-140.59;100.00
76321;BME280;65132;52.088;5.402;2023-11-21T05:05:02;78108.44;;;-140.59;100.00
76321;BME280;65132;52.088;5.402;2023-11-21T05:07:29;78108.44;;;-140.59;100.00
76321;BME280;65132;52.088;5.402;2023-11-21T05:09:58;78112.59;;;-140.59;100.00
76321;BME280;65132;52.088;5.402;2023-11-21T05:12:24;78108.44;;;-140.59;100.00
76321;BME280;65132;52.088;5.402;2023-11-21T05:14:51;78104.28;;;-140.59;100.00
76321;BME280;65132;52.088;5.402;2023-11-21T05:17:20;78104.28;;;-140.59;100.00
76321;BME280;65132;52.088;5.402;2023-11-21T05:19:48;78106.34;;;-140.59;100.00
76321;BME280;65132;52.088;5.402;2023-11-21T05:22:15;78106.34;;;-140.59;100.00
76321;BME280;65132;52.088;5.402;2023-11-21T05:24:43;78102.19;;;-140.59;100.00
76321;BME280;65132;52.088;5.402;2023-11-21T05:27:10;78100.13;;;-140.59;100.00
76321;BME280;65132;52.088;5.402;2023-11-21T05:29:36;78095.97;;;-140.59;100.00
76321;BME280;65132;52.088;5.402;2023-11-21T05:32:07;78098.03;;;-140.59;100.00
76321;BME280;65132;52.088;5.402;2023-11-21T05:34:34;78098.03;;;-140.59;100.00
76321;BME280;65132;52.088;5.402;2023-11-21T05:37:01;78100.13;;;-140.59;100.00
76321;BME280;65132;52.088;5.402;2023-11-21T05:39:28;78100.13;;;-140.59;100.00
76321;BME280;65132;52.088;5.402;2023-11-21T05:41:58;78104.28;;;-140.59;100.00
76321;BME280;65132;52.088;5.402;2023-11-21T05:44:30;78093.88;;;-140.59;100.00
76321;BME280;65132;52.088;5.402;2023-11-21T05:46:58;78102.19;;;-140.59;100.00
76321;BME280;65132;52.088;5.402;2023-11-21T05:49:25;78100.13;;;-140.59;100.00
76321;BME280;65132;52.088;5.402;2023-11-21T05:51:53;78102.19;;;-140.59;100.00
76321;BME280;65132;52.088;5.402;2023-11-21T05:54:22;78106.34;;;-140.59;100.00
76321;BME280;65132;52.088;5.402;2023-11-21T05:56:51;78108.44;;;-140.59;100.00
76321;BME280;65132;52.088;5.402;2023-11-21T05:59:21;78116.75;;;-140.59;100.00
76321;BME280;65132;52.088;5.402;2023-11-21T06:01:49;78120.91;;;-140.59;100.00
76321;BME280;65132;52.088;5.402;2023-11-21T06:04:15;78120.91;;;-140.59;100.00
76321;BME280;65132;52.088;5.402;2023-11-21T06:06:44;78120.91;;;-140.59;100.00
76321;BME280;65132;52.088;5.402;2023-11-21T06:09:11;78118.81;;;-140.59;100.00
76321;BME280;65132;52.088;5.402;2023-11-21T06:11:37;78125.06;;;-140.59;100.00
76321;BME280;65132;52.088;5.402;2023-11-21T06:14:09;78118.81;;;-140.59;100.00
76321;BME280;65132;52.088;5.402;2023-11-21T06:16:35;78129.22;;;-140.59;100.00
76321;BME280;65132;52.088;5.402;2023-11-21T06:19:04;78129.22;;;-140.59;100.00
76321;BME280;65132;52.088;5.402;2023-11-21T06:21:33;78125.06;;;-140.59;100.00
76321;BME280;65132;52.088;5.402;2023-11-21T06:23:59;78125.06;;;-140.59;100.00
76321;BME280;65132;52.088;5.402;2023-11-21T06:26:29;78127.13;;;-140.59;100.00
76321;BME280;65132;52.088;5.402;2023-11-21T06:28:55;78127.13;;;-140.59;100.00
76321;BME280;65132;52.088;5.402;2023-11-21T06:31:24;78125.06;;;-140.59;100.00
76321;BME280;65132;52.088;5.402;2023-11-21T06:33:52;78120.91;;;-140.59;100.00
76321;BME280;65132;52.088;5.402;2023-11-21T06:36:21;78122.97;;;-140.59;100.00
76321;BME280;65132;52.088;5.402;2023-11-21T06:38:52;78116.75;;;-140.59;100.00
76321;BME280;65132;52.088;5.402;2023-11-21T06:41:18;78118.81;;;-140.59;100.00
76321;BME280;65132;52.088;5.402;2023-11-21T06:43:45;78125.06;;;-140.59;100.00
76321;BME280;65132;52.088;5.402;2023-11-21T06:46:13;78125.06;;;-140.59;100.00
76321;BME280;65132;52.088;5.402;2023-11-21T06:48:42;78127.13;;;-140.59;100.00
76321;BME280;65132;52.088;5.402;2023-11-21T06:51:09;78127.13;;;-140.59;100.00
76321;BME280;65132;52.088;5.402;2023-11-21T06:53:36;78125.06;;;-140.59;100.00
76321;BME280;65132;52.088;5.402;2023-11-21T06:56:15;78125.06;;;-140.59;100.00
76321;BME280;65132;52.088;5.402;2023-11-21T06:58:41;78120.91;;;-140.59;100.00
76321;BME280;65132;52.088;5.402;2023-11-21T07:01:08;78118.81;;;-140.59;100.00
76321;BME280;65132;52.088;5.402;2023-11-21T07:03:36;78122.97;;;-140.59;100.00
76321;BME280;65132;52.088;5.402;2023-11-21T07:06:04;78120.91;;;-140.59;100.00
76321;BME280;65132;52.088;5.402;2023-11-21T07:08:30;78131.28;;;-140.59;100.00
76321;BME280;65132;52.088;5.402;2023-11-21T07:11:00;78125.06;;;-140.59;100.00
76321;BME280;65132;52.088;5.402;2023-11-21T07:13:30;78112.59;;;-140.59;100.00
76321;BME280;65132;52.088;5.402;2023-11-21T07:16:00;78116.75;;;-140.59;100.00
76321;BME280;65132;52.088;5.402;2023-11-21T07:18:29;78112.59;;;-140.59;100.00
76321;BME280;65132;52.088;5.402;2023-11-21T07:20:55;78116.75;;;-140.59;100.00
76321;BME280;65132;52.088;5.402;2023-11-21T07:23:22;78116.75;;;-140.59;100.00
76321;BME280;65132;52.088;5.402;2023-11-21T07:26:01;78110.50;;;-140.59;100.00
76321;BME280;65132;52.088;5.402;2023-11-21T07:28:31;78116.75;;;-140.59;100.00
76321;BME280;65132;52.088;5.402;2023-11-21T07:30:57;78118.81;;;-140.59;100.00
76321;BME280;65132;52.088;5.402;2023-11-21T07:33:27;78114.66;;;-140.59;100.00
76321;BME280;65132;52.088;5.402;2023-11-21T07:35:54;78108.44;;;-140.59;100.00
76321;BME280;65132;52.088;5.402;2023-11-21T07:38:21;78108.44;;;-140.59;100.00
76321;BME280;65132;52.088;5.402;2023-11-21T07:40:47;78108.44;;;-140.59;100.00
76321;BME280;65132;52.088;5.402;2023-11-21T07:43:14;78108.44;;;-140.59;100.00
76321;BME280;65132;52.088;5.402;2023-11-21T07:45:40;78112.59;;;-140.59;100.00
76321;BME280;65132;52.088;5.402;2023-11-21T07:48:12;78114.66;;;-140.59;100.00
76321;BME280;65132;52.088;5.402;2023-11-21T07:50:38;78125.06;;;-140.59;100.00
76321;BME280;65132;52.088;5.402;2023-11-21T07:53:08;78120.91;;;-140.59;100.00
76321;BME280;65132;52.088;5.402;2023-11-21T07:55:34;78116.75;;;-140.59;100.00
76321;BME280;65132;52.088;5.402;2023-11-21T07:58:01;78118.81;;;-140.59;100.00
76321;BME280;65132;52.088;5.402;2023-11-21T08:00:27;78122.97;;;-140.59;100.00
76321;BME280;65132;52.088;5.402;2023-11-21T08:02:56;78125.06;;;-140.59;100.00
76321;BME280;65132;52.088;5.402;2023-11-21T08:05:23;78116.75;;;-140.59;100.00
76321;BME280;65132;52.088;5.402;2023-11-21T08:08:00;78116.75;;;-140.59;100.00
76321;BME280;65132;52.088;5.402;2023-11-21T08:10:28;78110.50;;;-140.59;100.00
76321;BME280;65132;52.088;5.402;2023-11-21T08:12:54;78100.13;;;-140.59;100.00
76321;BME280;65132;52.088;5.402;2023-11-21T08:15:21;78098.03;;;-140.59;100.00
76321;BME280;65132;52.088;5.402;2023-11-21T08:17:50;78093.88;;;-140.59;100.00
76321;BME280;65132;52.088;5.402;2023-11-21T08:20:21;78087.66;;;-140.59;100.00
76321;BME280;65132;52.088;5.402;2023-11-21T08:22:48;78085.56;;;-140.59;100.00
76321;BME280;65132;52.088;5.402;2023-11-21T08:25:17;78077.25;;;-140.59;100.00
76321;BME280;65132;52.088;5.402;2023-11-21T08:27:47;78068.94;;;-140.59;100.00
76321;BME280;65132;52.088;5.402;2023-11-21T08:30:13;78071.03;;;-140.59;100.00
76321;BME280;65132;52.088;5.402;2023-11-21T08:32:40;78066.88;;;-140.59;100.00
76321;BME280;65132;52.088;5.402;2023-11-21T08:35:10;78071.03;;;-140.59;100.00
76321;BME280;65132;52.088;5.402;2023-11-21T08:37:38;78071.03;;;-140.59;100.00
76321;BME280;65132;52.088;5.402;2023-11-21T08:40:08;78079.34;;;-140.59;100.00
76321;BME280;65132;52.088;5.402;2023-11-21T08:42:40;78075.19;;;-140.59;100.00
76321;BME280;65132;52.088;5.402;2023-11-21T08:45:08;78085.56;;;-140.59;100.00
76321;BME280;65132;52.088;5.402;2023-11-21T08:47:39;78087.66;;;-140.59;100.00
76321;BME280;65132;52.088;5.402;2023-11-21T08:50:07;78091.81;;;-140.59;100.00
76321;BME280;65132;52.088;5.402;2023-11-21T08:52:34;78093.88;;;-140.59;100.00
76321;BME280;65132;52.088;5.402;2023-11-21T08:55:08;78089.72;;;-140.59;100.00
76321;BME280;65132;52.088;5.402;2023-11-21T08:57:38;78083.50;;;-140.59;100.00
76321;BME280;65132;52.088;5.402;2023-11-21T09:00:10;78085.56;;;-140.59;100.00
76321;BME280;65132;52.088;5.402;2023-11-21T09:02:43;78081.41;;;-140.59;100.00
76321;BME280;65132;52.088;5.402;2023-11-21T09:05:11;78079.34;;;-140.59;100.00
76321;BME280;65132;52.088;5.402;2023-11-21T09:07:41;78062.72;;;-140.59;100.00
76321;BME280;65132;52.088;5.402;2023-11-21T09:10:08;78066.88;;;-140.59;100.00
76321;BME280;65132;52.088;5.402;2023-11-21T09:12:39;78050.25;;;-140.59;100.00
76321;BME280;65132;52.088;5.402;2023-11-21T09:15:06;78021.16;;;-140.59;100.00
76321;BME280;65132;52.088;5.402;2023-11-21T09:17:34;77996.22;;;-140.59;100.00
76321;BME280;65132;52.088;5.402;2023-11-21T09:20:04;77992.06;;;-140.59;100.00
76321;BME280;65132;52.088;5.402;2023-11-21T09:22:31;78019.09;;;-140.59;100.00
76321;BME280;65132;52.088;5.402;2023-11-21T09:24:58;78008.69;;;-140.59;100.00
76321;BME280;65132;52.088;5.402;2023-11-21T09:27:24;78019.09;;;-140.59;100.00
76321;BME280;65132;52.088;5.402;2023-11-21T09:29:51;78021.16;;;-140.59;100.00
76321;BME280;65132;52.088;5.402;2023-11-21T09:32:20;78037.78;;;-140.59;100.00
76321;BME280;65132;52.088;5.402;2023-11-21T09:34:51;78044.03;;;-140.59;100.00
76321;BME280;65132;52.088;5.402;2023-11-21T09:37:22;78050.25;;;-140.59;100.00
76321;BME280;65132;52.088;5.402;2023-11-21T09:39:52;78050.25;;;-140.59;100.00
76321;BME280;65132;52.088;5.402;2023-11-21T09:42:39;78060.63;;;-140.59;100.00
76321;BME280;65132;52.088;5.402;2023-11-21T09:45:32;78081.41;;;-140.59;100.00
76321;BME280;65132;52.088;5.402;2023-11-21T09:48:01;78091.81;;;-140.59;100.00
76321;BME280;65132;52.088;5.402;2023-11-21T09:50:27;78093.88;;;-140.59;100.00
76321;BME280;65132;52.088;5.402;2023-11-21T09:53:18;78079.34;;;-140.59;100.00
76321;BME280;65132;52.088;5.402;2023-11-21T09:55:48;78095.97;;;-140.59;100.00
76321;BME280;65132;52.088;5.402;2023-11-21T09:58:19;78087.66;;;-140.59;100.00
76321;BME280;65132;52.088;5.402;2023-11-21T10:00:47;78108.44;;;-140.59;100.00
76321;BME280;65132;52.088;5.402;2023-11-21T10:03:19;78120.91;;;-140.59;100.00
76321;BME280;65132;52.088;5.402;2023-11-21T10:05:48;78118.81;;;-140.59;100.00
76321;BME280;65132;52.088;5.402;2023-11-21T10:08:20;78127.13;;;-140.59;100.00
76321;BME280;65132;52.088;5.402;2023-11-21T10:10:51;78125.06;;;-140.59;100.00
76321;BME280;65132;52.088;5.402;2023-11-21T10:13:20;78131.28;;;-140.59;100.00
76321;BME280;65132;52.088;5.402;2023-11-21T10:15:50;78133.38;;;-140.59;100.00
76321;BME280;65132;52.088;5.402;2023-11-21T10:18:18;78139.59;;;-140.59;100.00
76321;BME280;65132;52.088;5.402;2023-11-21T10:20:45;78150.00;;;-140.59;100.00
76321;BME280;65132;52.088;5.402;2023-11-21T10:23:12;78135.44;;;-140.59;100.00
76321;BME280;65132;52.088;5.402;2023-11-21T10:25:38;78131.28;;;-140.59;100.00
76321;BME280;65132;52.088;5.402;2023-11-21T10:28:05;78127.13;;;-140.59;100.00
76321;BME280;65132;52.088;5.402;2023-11-21T10:30:35;78125.06;;;-140.59;100.00
76321;BME280;65132;52.088;5.402;2023-11-21T10:33:02;78116.75;;;-140.59;100.00
76321;BME280;65132;52.088;5.402;2023-11-21T10:35:49;78131.28;;;-140.59;100.00
76321;BME280;65132;52.088;5.402;2023-11-21T10:38:15;78137.53;;;-140.59;100.00
76321;BME280;65132;52.088;5.402;2023-11-21T10:40:44;78152.06;;;-140.59;100.00
76321;BME280;65132;52.088;5.402;2023-11-21T10:43:13;78162.47;;;-140.59;100.00
76321;BME280;65132;52.088;5.402;2023-11-21T10:45:41;78160.38;;;-140.59;100.00
76321;BME280;65132;52.088;5.402;2023-11-21T10:48:09;78179.09;;;-140.59;100.00
76321;BME280;65132;52.088;5.402;2023-11-21T10:50:37;78181.16;;;-140.59;100.00
76321;BME280;65132;52.088;5.402;2023-11-21T10:53:04;78201.94;;;-140.59;100.00
76321;BME280;65132;52.088;5.402;2023-11-21T10:55:32;78201.94;;;-140.59;100.00
76321;BME280;65132;52.088;5.402;2023-11-21T10:58:01;78214.41;;;-140.59;100.00
76321;BME280;65132;52.088;5.402;2023-11-21T11:00:28;78212.34;;;-140.59;100.00
76321;BME280;65132;52.088;5.402;2023-11-21T11:02:55;78231.03;;;-140.59;100.00
76321;BME280;65132;52.088;5.402;2023-11-21T11:05:24;78233.13;;;-140.59;100.00
76321;BME280;65132;52.088;5.402;2023-11-21T11:07:58;78233.13;;;-140.59;100.00
76321;BME280;65132;52.088;5.402;2023-11-21T11:10:26;78220.66;;;-140.59;100.00
76321;BME280;65132;52.088;5.402;2023-11-21T11:12:55;78226.88;;;-140.59;100.00
76321;BME280;65132;52.088;5.402;2023-11-21T11:15:23;78214.41;;;-140.59;100.00
76321;BME280;65132;52.088;5.402;2023-11-21T11:17:49;78212.34;;;-140.59;100.00
76321;BME280;65132;52.088;5.402;2023-11-21T11:20:19;78204.03;;;-140.59;100.00
76321;BME280;65132;52.088;5.402;2023-11-21T11:26:13;78216.50;;;-140.59;100.00
76321;BME280;65132;52.088;5.402;2023-11-21T11:31:37;78228.97;;;-140.59;100.00
76321;BME280;65132;52.088;5.402;2023-11-21T11:37:14;78237.28;;;-140.59;100.00
76321;BME280;65132;52.088;5.402;2023-11-21T11:39:42;78247.66;;;-140.59;100.00
76321;BME280;65132;52.088;5.402;2023-11-21T11:42:14;78245.59;;;-140.59;100.00
76321;BME280;65132;52.088;5.402;2023-11-21T11:47:24;78237.28;;;-140.59;100.00
76321;BME280;65132;52.088;5.402;2023-11-21T11:50:08;78247.66;;;-140.59;100.00
76321;BME280;65132;52.088;5.402;2023-11-21T11:52:40;78237.28;;;-140.59;100.00
76321;BME280;65132;52.088;5.402;2023-11-21T11:55:14;78243.50;;;-140.59;100.00
76321;BME280;65132;52.088;5.402;2023-11-21T11:57:47;78231.03;;;-140.59;100.00
76321;BME280;65132;52.088;5.402;2023-11-21T12:00:19;78226.88;;;-140.59;100.00
76321;BME280;65132;52.088;5.402;2023-11-21T12:03:01;78222.72;;;-140.59;100.00
76321;BME280;65132;52.088;5.402;2023-11-21T12:05:30;78235.19;;;-140.59;100.00
76321;BME280;65132;52.088;5.402;2023-11-21T12:08:02;78239.34;;;-140.59;100.00
76321;BME280;65132;52.088;5.402;2023-11-21T12:10:34;78243.50;;;-140.59;100.00
76321;BME280;65132;52.088;5.402;2023-11-21T12:13:06;78245.59;;;-140.59;100.00
76321;BME280;65132;52.088;5.402;2023-11-21T12:15:33;78243.50;;;-140.59;100.00
76321;BME280;65132;52.088;5.402;2023-11-21T12:18:05;78241.44;;;-140.59;100.00
76321;BME280;65132;52.088;5.402;2023-11-21T12:20:33;78255.97;;;-140.59;100.00
76321;BME280;65132;52.088;5.402;2023-11-21T12:22:59;78258.06;;;-140.59;100.00
76321;BME280;65132;52.088;5.402;2023-11-21T12:25:28;78247.66;;;-140.59;100.00
76321;BME280;65132;52.088;5.402;2023-11-21T12:27:56;78249.75;;;-140.59;100.00
76321;BME280;65132;52.088;5.402;2023-11-21T12:30:27;78251.81;;;-140.59;100.00
76321;BME280;65132;52.088;5.402;2023-11-21T12:32:54;78253.91;;;-140.59;100.00
76321;BME280;65132;52.088;5.402;2023-11-21T12:35:25;78253.91;;;-140.59;100.00
76321;BME280;65132;52.088;5.402;2023-11-21T12:37:55;78245.59;;;-140.59;100.00
76321;BME280;65132;52.088;5.402;2023-11-21T12:40:22;78249.75;;;-140.59;100.00
76321;BME280;65132;52.088;5.402;2023-11-21T12:42:52;78260.13;;;-140.59;100.00
76321;BME280;65132;52.088;5.402;2023-11-21T12:45:21;78274.69;;;-140.59;100.00
76321;BME280;65132;52.088;5.402;2023-11-21T12:47:51;78276.75;;;-140.59;100.00
76321;BME280;65132;52.088;5.402;2023-11-21T12:50:22;78276.75;;;-140.59;100.00